sensor_id;sensor_type;location;lat;lon;timestamp;P1;durP1;ratioP1;P2;durP2;ratioP2
30133;SDS011;16946;49.984;10.672;2023-02-10T00:00:17;32.00;;;23.30;;
30133;SDS011;16946;49.984;10.672;2023-02-10T00:00:47;32.37;;;23.53;;
30133;SDS011;16946;49.984;10.672;2023-02-10T00:01:22;31.33;;;24.30;;
30133;SDS011;16946;49.984;10.672;2023-02-10T00:01:54;31.83;;;24.00;;
30133;SDS011;16946;49.984;10.672;2023-02-10T00:02:25;36.80;;;25.57;;
30133;SDS011;16946;49.984;10.672;2023-02-10T00:02:55;34.03;;;23.77;;
30133;SDS011;16946;49.984;10.672;2023-02-10T00:03:26;35.60;;;26.00;;
30133;SDS011;16946;49.984;10.672;2023-02-10T00:03:56;33.97;;;24.07;;
30133;SDS011;16946;49.984;10.672;2023-02-10T00:04:27;31.07;;;23.33;;
30133;SDS011;16946;49.984;10.672;2023-02-10T00:04:57;32.57;;;23.47;;
30133;SDS011;16946;49.984;10.672;2023-02-10T00:05:28;32.20;;;23.23;;
30133;SDS011;16946;49.984;10.672;2023-02-10T00:05:58;33.80;;;24.60;;
30133;SDS011;16946;49.984;10.672;2023-02-10T00:06:29;31.38;;;23.15;;
30133;SDS011;16946;49.984;10.672;2023-02-10T00:07:00;32.78;;;22.65;;
30133;SDS011;16946;49.984;10.672;2023-02-10T00:07:31;32.20;;;24.43;;
30133;SDS011;16946;49.984;10.672;2023-02-10T00:08:01;34.93;;;25.23;;
30133;SDS011;16946;49.984;10.672;2023-02-10T00:08:32;33.80;;;24.33;;
30133;SDS011;16946;49.984;10.672;2023-02-10T00:09:03;35.03;;;24.85;;
30133;SDS011;16946;49.984;10.672;2023-02-10T00:09:34;35.83;;;22.57;;
30133;SDS011;16946;49.984;10.672;2023-02-10T00:10:04;32.90;;;23.67;;
30133;SDS011;16946;49.984;10.672;2023-02-10T00:10:35;32.30;;;23.38;;
30133;SDS011;16946;49.984;10.672;2023-02-10T00:11:09;34.27;;;24.03;;
30133;SDS011;16946;49.984;10.672;2023-02-10T00:11:41;34.55;;;25.30;;
30133;SDS011;16946;49.984;10.672;2023-02-10T00:12:26;34.17;;;23.63;;
30133;SDS011;16946;49.984;10.672;2023-02-10T00:12:57;34.63;;;24.30;;
30133;SDS011;16946;49.984;10.672;2023-02-10T00:13:28;32.93;;;23.83;;
30133;SDS011;16946;49.984;10.672;2023-02-10T00:13:59;33.70;;;24.15;;
30133;SDS011;16946;49.984;10.672;2023-02-10T00:14:29;32.67;;;23.47;;
30133;SDS011;16946;49.984;10.672;2023-02-10T00:15:00;34.17;;;23.70;;
30133;SDS011;16946;49.984;10.672;2023-02-10T00:15:30;32.50;;;23.53;;
30133;SDS011;16946;49.984;10.672;2023-02-10T00:16:01;35.37;;;24.47;;
30133;SDS011;16946;49.984;10.672;2023-02-10T00:16:33;32.88;;;24.58;;
30133;SDS011;16946;49.984;10.672;2023-02-10T00:17:04;33.97;;;23.90;;
30133;SDS011;16946;49.984;10.672;2023-02-10T00:17:34;34.23;;;25.40;;
30133;SDS011;16946;49.984;10.672;2023-02-10T00:18:05;33.73;;;23.93;;
30133;SDS011;16946;49.984;10.672;2023-02-10T00:18:36;35.93;;;26.03;;
30133;SDS011;16946;49.984;10.672;2023-02-10T00:19:06;38.27;;;25.03;;
30133;SDS011;16946;49.984;10.672;2023-02-10T00:19:37;34.97;;;23.03;;
30133;SDS011;16946;49.984;10.672;2023-02-10T00:20:07;35.07;;;24.53;;
30133;SDS011;16946;49.984;10.672;2023-02-10T00:20:38;33.53;;;24.77;;
30133;SDS011;16946;49.984;10.672;2023-02-10T00:21:13;34.43;;;24.07;;
30133;SDS011;16946;49.984;10.672;2023-02-10T00:21:46;34.20;;;24.45;;
30133;SDS011;16946;49.984;10.672;2023-02-10T00:22:17;33.00;;;22.95;;
30133;SDS011;16946;49.984;10.672;2023-02-10T00:22:47;34.67;;;24.50;;
30133;SDS011;16946;49.984;10.672;2023-02-10T00:23:18;32.83;;;24.13;;
30133;SDS011;16946;49.984;10.672;2023-02-10T00:23:49;35.90;;;22.77;;
30133;SDS011;16946;49.984;10.672;2023-02-10T00:24:20;34.58;;;23.65;;
30133;SDS011;16946;49.984;10.672;2023-02-10T00:24:51;33.13;;;22.83;;
30133;SDS011;16946;49.984;10.672;2023-02-10T00:25:22;32.90;;;23.53;;
30133;SDS011;16946;49.984;10.672;2023-02-10T00:25:52;34.97;;;24.73;;
30133;SDS011;16946;49.984;10.672;2023-02-10T00:26:23;35.40;;;24.60;;
30133;SDS011;16946;49.984;10.672;2023-02-10T00:26:55;30.83;;;22.48;;
30133;SDS011;16946;49.984;10.672;2023-02-10T00:27:25;34.33;;;23.40;;
30133;SDS011;16946;49.984;10.672;2023-02-10T00:27:56;32.03;;;24.23;;
30133;SDS011;16946;49.984;10.672;2023-02-10T00:28:26;38.10;;;26.47;;
30133;SDS011;16946;49.984;10.672;2023-02-10T00:28:57;38.10;;;26.67;;
30133;SDS011;16946;49.984;10.672;2023-02-10T00:29:28;34.80;;;24.93;;
30133;SDS011;16946;49.984;10.672;2023-02-10T00:29:58;35.87;;;25.00;;
30133;SDS011;16946;49.984;10.672;2023-02-10T00:30:29;34.27;;;25.57;;
30133;SDS011;16946;49.984;10.672;2023-02-10T00:31:07;31.83;;;22.90;;
30133;SDS011;16946;49.984;10.672;2023-02-10T00:31:38;37.60;;;25.58;;
30133;SDS011;16946;49.984;10.672;2023-02-10T00:32:09;37.37;;;25.80;;
30133;SDS011;16946;49.984;10.672;2023-02-10T00:32:40;33.05;;;24.42;;
30133;SDS011;16946;49.984;10.672;2023-02-10T00:33:11;37.97;;;25.53;;
30133;SDS011;16946;49.984;10.672;2023-02-10T00:33:41;38.73;;;26.00;;
30133;SDS011;16946;49.984;10.672;2023-02-10T00:34:13;36.03;;;25.63;;
30133;SDS011;16946;49.984;10.672;2023-02-10T00:34:45;37.00;;;24.80;;
30133;SDS011;16946;49.984;10.672;2023-02-10T00:35:16;38.63;;;25.90;;
30133;SDS011;16946;49.984;10.672;2023-02-10T00:35:46;40.53;;;26.23;;
30133;SDS011;16946;49.984;10.672;2023-02-10T00:36:17;34.63;;;24.37;;
30133;SDS011;16946;49.984;10.672;2023-02-10T00:36:50;38.30;;;25.50;;
30133;SDS011;16946;49.984;10.672;2023-02-10T00:37:20;37.28;;;26.63;;
30133;SDS011;16946;49.984;10.672;2023-02-10T00:37:51;35.67;;;25.17;;
30133;SDS011;16946;49.984;10.672;2023-02-10T00:38:21;35.53;;;25.43;;
30133;SDS011;16946;49.984;10.672;2023-02-10T00:38:52;36.93;;;23.83;;
30133;SDS011;16946;49.984;10.672;2023-02-10T00:39:23;35.33;;;25.13;;
30133;SDS011;16946;49.984;10.672;2023-02-10T00:39:54;31.37;;;23.77;;
30133;SDS011;16946;49.984;10.672;2023-02-10T00:40:25;33.80;;;24.40;;
30133;SDS011;16946;49.984;10.672;2023-02-10T00:40:55;33.43;;;23.23;;
30133;SDS011;16946;49.984;10.672;2023-02-10T00:41:31;35.83;;;24.55;;
30133;SDS011;16946;49.984;10.672;2023-02-10T00:42:01;32.37;;;22.67;;
30133;SDS011;16946;49.984;10.672;2023-02-10T00:42:32;33.40;;;22.93;;
30133;SDS011;16946;49.984;10.672;2023-02-10T00:43:02;34.13;;;24.00;;
30133;SDS011;16946;49.984;10.672;2023-02-10T00:43:33;34.50;;;24.57;;
30133;SDS011;16946;49.984;10.672;2023-02-10T00:44:03;31.23;;;22.60;;
30133;SDS011;16946;49.984;10.672;2023-02-10T00:44:34;37.07;;;26.17;;
30133;SDS011;16946;49.984;10.672;2023-02-10T00:45:04;34.80;;;25.00;;
30133;SDS011;16946;49.984;10.672;2023-02-10T00:45:35;35.23;;;23.53;;
30133;SDS011;16946;49.984;10.672;2023-02-10T00:46:06;32.53;;;23.67;;
30133;SDS011;16946;49.984;10.672;2023-02-10T00:46:37;33.97;;;24.10;;
30133;SDS011;16946;49.984;10.672;2023-02-10T00:47:07;34.37;;;24.87;;
30133;SDS011;16946;49.984;10.672;2023-02-10T00:47:38;33.47;;;25.43;;
30133;SDS011;16946;49.984;10.672;2023-02-10T00:48:09;36.92;;;25.95;;
30133;SDS011;16946;49.984;10.672;2023-02-10T00:48:39;35.53;;;25.57;;
30133;SDS011;16946;49.984;10.672;2023-02-10T00:49:10;35.53;;;25.37;;
30133;SDS011;16946;49.984;10.672;2023-02-10T00:49:42;35.00;;;24.02;;
30133;SDS011;16946;49.984;10.672;2023-02-10T00:50:12;33.60;;;24.80;;
30133;SDS011;16946;49.984;10.672;2023-02-10T00:50:43;39.20;;;28.40;;
30133;SDS011;16946;49.984;10.672;2023-02-10T00:51:13;34.83;;;26.03;;
30133;SDS011;16946;49.984;10.672;2023-02-10T00:51:45;34.88;;;25.50;;
30133;SDS011;16946;49.984;10.672;2023-02-10T00:52:16;39.30;;;27.70;;
30133;SDS011;16946;49.984;10.672;2023-02-10T00:52:46;39.73;;;26.73;;
30133;SDS011;16946;49.984;10.672;2023-02-10T00:53:17;37.60;;;26.33;;
30133;SDS011;16946;49.984;10.672;2023-02-10T00:53:47;34.90;;;24.50;;
30133;SDS011;16946;49.984;10.672;2023-02-10T00:54:22;39.72;;;25.40;;
30133;SDS011;16946;49.984;10.672;2023-02-10T00:54:53;36.17;;;25.70;;
30133;SDS011;16946;49.984;10.672;2023-02-10T00:55:23;37.90;;;26.07;;
30133;SDS011;16946;49.984;10.672;2023-02-10T00:55:54;37.77;;;26.90;;
30133;SDS011;16946;49.984;10.672;2023-02-10T00:56:24;38.63;;;27.93;;
30133;SDS011;16946;49.984;10.672;2023-02-10T00:56:55;41.63;;;27.53;;
30133;SDS011;16946;49.984;10.672;2023-02-10T00:57:25;39.83;;;26.60;;
30133;SDS011;16946;49.984;10.672;2023-02-10T00:57:56;38.77;;;26.27;;
30133;SDS011;16946;49.984;10.672;2023-02-10T00:58:26;40.30;;;26.33;;
30133;SDS011;16946;49.984;10.672;2023-02-10T00:58:57;36.70;;;25.47;;
30133;SDS011;16946;49.984;10.672;2023-02-10T00:59:27;36.83;;;24.90;;
30133;SDS011;16946;49.984;10.672;2023-02-10T00:59:58;37.57;;;25.33;;
30133;SDS011;16946;49.984;10.672;2023-02-10T01:00:28;38.87;;;25.93;;
30133;SDS011;16946;49.984;10.672;2023-02-10T01:00:59;35.67;;;24.90;;
30133;SDS011;16946;49.984;10.672;2023-02-10T01:01:30;40.77;;;26.67;;
30133;SDS011;16946;49.984;10.672;2023-02-10T01:02:00;35.97;;;25.33;;
30133;SDS011;16946;49.984;10.672;2023-02-10T01:02:31;35.50;;;25.50;;
30133;SDS011;16946;49.984;10.672;2023-02-10T01:03:01;43.10;;;26.00;;
30133;SDS011;16946;49.984;10.672;2023-02-10T01:03:32;38.83;;;26.03;;
30133;SDS011;16946;49.984;10.672;2023-02-10T01:04:03;39.38;;;26.50;;
30133;SDS011;16946;49.984;10.672;2023-02-10T01:04:34;32.63;;;23.37;;
30133;SDS011;16946;49.984;10.672;2023-02-10T01:05:06;33.08;;;24.42;;
30133;SDS011;16946;49.984;10.672;2023-02-10T01:05:36;36.40;;;25.47;;
30133;SDS011;16946;49.984;10.672;2023-02-10T01:06:07;36.97;;;25.03;;
30133;SDS011;16946;49.984;10.672;2023-02-10T01:06:39;37.08;;;25.92;;
30133;SDS011;16946;49.984;10.672;2023-02-10T01:07:09;34.97;;;24.40;;
30133;SDS011;16946;49.984;10.672;2023-02-10T01:07:40;35.80;;;24.13;;
30133;SDS011;16946;49.984;10.672;2023-02-10T01:08:11;34.50;;;24.27;;
30133;SDS011;16946;49.984;10.672;2023-02-10T01:08:43;33.88;;;24.20;;
30133;SDS011;16946;49.984;10.672;2023-02-10T01:09:13;34.93;;;23.70;;
30133;SDS011;16946;49.984;10.672;2023-02-10T01:09:44;35.47;;;23.77;;
30133;SDS011;16946;49.984;10.672;2023-02-10T01:10:14;35.70;;;25.00;;
30133;SDS011;16946;49.984;10.672;2023-02-10T01:10:45;31.93;;;22.97;;
30133;SDS011;16946;49.984;10.672;2023-02-10T01:11:16;37.47;;;25.42;;
30133;SDS011;16946;49.984;10.672;2023-02-10T01:11:48;34.80;;;24.77;;
30133;SDS011;16946;49.984;10.672;2023-02-10T01:12:18;35.97;;;25.83;;
30133;SDS011;16946;49.984;10.672;2023-02-10T01:12:49;35.23;;;25.30;;
30133;SDS011;16946;49.984;10.672;2023-02-10T01:13:19;34.63;;;24.23;;
30133;SDS011;16946;49.984;10.672;2023-02-10T01:13:50;37.27;;;25.00;;
30133;SDS011;16946;49.984;10.672;2023-02-10T01:14:20;35.40;;;24.70;;
30133;SDS011;16946;49.984;10.672;2023-02-10T01:14:51;37.63;;;25.97;;
30133;SDS011;16946;49.984;10.672;2023-02-10T01:15:22;36.53;;;24.60;;
30133;SDS011;16946;49.984;10.672;2023-02-10T01:15:52;37.07;;;24.10;;
30133;SDS011;16946;49.984;10.672;2023-02-10T01:16:23;31.90;;;23.40;;
30133;SDS011;16946;49.984;10.672;2023-02-10T01:16:53;35.63;;;23.93;;
30133;SDS011;16946;49.984;10.672;2023-02-10T01:17:24;35.50;;;24.77;;
30133;SDS011;16946;49.984;10.672;2023-02-10T01:17:55;34.40;;;24.13;;
30133;SDS011;16946;49.984;10.672;2023-02-10T01:18:25;36.00;;;25.77;;
30133;SDS011;16946;49.984;10.672;2023-02-10T01:18:57;36.20;;;25.10;;
30133;SDS011;16946;49.984;10.672;2023-02-10T01:19:28;38.25;;;24.50;;
30133;SDS011;16946;49.984;10.672;2023-02-10T01:19:59;34.10;;;24.13;;
30133;SDS011;16946;49.984;10.672;2023-02-10T01:20:29;35.53;;;24.57;;
30133;SDS011;16946;49.984;10.672;2023-02-10T01:21:05;35.77;;;24.60;;
30133;SDS011;16946;49.984;10.672;2023-02-10T01:21:55;37.78;;;24.58;;
30133;SDS011;16946;49.984;10.672;2023-02-10T01:22:26;36.97;;;24.13;;
30133;SDS011;16946;49.984;10.672;2023-02-10T01:22:56;36.53;;;25.77;;
30133;SDS011;16946;49.984;10.672;2023-02-10T01:23:27;35.77;;;24.70;;
30133;SDS011;16946;49.984;10.672;2023-02-10T01:23:57;38.87;;;25.23;;
30133;SDS011;16946;49.984;10.672;2023-02-10T01:24:28;33.70;;;23.33;;
30133;SDS011;16946;49.984;10.672;2023-02-10T01:24:59;36.77;;;24.93;;
30133;SDS011;16946;49.984;10.672;2023-02-10T01:25:29;33.43;;;24.40;;
30133;SDS011;16946;49.984;10.672;2023-02-10T01:26:00;37.00;;;25.20;;
30133;SDS011;16946;49.984;10.672;2023-02-10T01:26:31;35.13;;;24.50;;
30133;SDS011;16946;49.984;10.672;2023-02-10T01:27:02;38.60;;;26.80;;
30133;SDS011;16946;49.984;10.672;2023-02-10T01:27:33;36.07;;;24.23;;
30133;SDS011;16946;49.984;10.672;2023-02-10T01:28:03;35.90;;;24.77;;
30133;SDS011;16946;49.984;10.672;2023-02-10T01:28:35;35.58;;;25.08;;
30133;SDS011;16946;49.984;10.672;2023-02-10T01:29:07;34.20;;;23.67;;
30133;SDS011;16946;49.984;10.672;2023-02-10T01:29:37;33.93;;;24.07;;
30133;SDS011;16946;49.984;10.672;2023-02-10T01:30:08;35.97;;;26.13;;
30133;SDS011;16946;49.984;10.672;2023-02-10T01:30:39;34.25;;;23.33;;
30133;SDS011;16946;49.984;10.672;2023-02-10T01:31:14;35.60;;;25.23;;
30133;SDS011;16946;49.984;10.672;2023-02-10T01:31:46;35.58;;;25.25;;
30133;SDS011;16946;49.984;10.672;2023-02-10T01:32:17;33.83;;;24.33;;
30133;SDS011;16946;49.984;10.672;2023-02-10T01:32:47;37.90;;;24.97;;
30133;SDS011;16946;49.984;10.672;2023-02-10T01:33:23;38.80;;;25.55;;
30133;SDS011;16946;49.984;10.672;2023-02-10T01:33:54;36.47;;;24.23;;
30133;SDS011;16946;49.984;10.672;2023-02-10T01:34:25;36.22;;;24.40;;
30133;SDS011;16946;49.984;10.672;2023-02-10T01:34:56;33.63;;;24.75;;
30133;SDS011;16946;49.984;10.672;2023-02-10T01:35:27;32.77;;;23.30;;
30133;SDS011;16946;49.984;10.672;2023-02-10T01:35:57;36.20;;;24.67;;
30133;SDS011;16946;49.984;10.672;2023-02-10T01:36:28;33.73;;;23.37;;
30133;SDS011;16946;49.984;10.672;2023-02-10T01:36:58;35.70;;;24.37;;
30133;SDS011;16946;49.984;10.672;2023-02-10T01:37:29;35.03;;;24.97;;
30133;SDS011;16946;49.984;10.672;2023-02-10T01:37:59;32.90;;;23.93;;
30133;SDS011;16946;49.984;10.672;2023-02-10T01:38:30;37.97;;;25.20;;
30133;SDS011;16946;49.984;10.672;2023-02-10T01:39:01;34.73;;;24.40;;
30133;SDS011;16946;49.984;10.672;2023-02-10T01:39:31;33.97;;;24.33;;
30133;SDS011;16946;49.984;10.672;2023-02-10T01:40:02;34.90;;;24.13;;
30133;SDS011;16946;49.984;10.672;2023-02-10T01:40:33;39.03;;;26.20;;
30133;SDS011;16946;49.984;10.672;2023-02-10T01:41:04;33.97;;;24.63;;
30133;SDS011;16946;49.984;10.672;2023-02-10T01:41:35;35.22;;;24.27;;
30133;SDS011;16946;49.984;10.672;2023-02-10T01:42:05;34.37;;;24.17;;
30133;SDS011;16946;49.984;10.672;2023-02-10T01:42:37;34.65;;;25.13;;
30133;SDS011;16946;49.984;10.672;2023-02-10T01:43:15;36.42;;;25.70;;
30133;SDS011;16946;49.984;10.672;2023-02-10T01:43:54;36.67;;;25.75;;
30133;SDS011;16946;49.984;10.672;2023-02-10T01:46:02;36.17;;;24.05;;
30133;SDS011;16946;49.984;10.672;2023-02-10T01:46:34;37.57;;;25.70;;
30133;SDS011;16946;49.984;10.672;2023-02-10T01:47:05;37.33;;;24.67;;
30133;SDS011;16946;49.984;10.672;2023-02-10T01:47:37;37.47;;;24.02;;
30133;SDS011;16946;49.984;10.672;2023-02-10T01:48:08;37.77;;;25.10;;
30133;SDS011;16946;49.984;10.672;2023-02-10T01:48:39;36.80;;;24.00;;
30133;SDS011;16946;49.984;10.672;2023-02-10T01:49:10;36.53;;;24.93;;
30133;SDS011;16946;49.984;10.672;2023-02-10T01:49:45;34.22;;;23.98;;
30133;SDS011;16946;49.984;10.672;2023-02-10T01:50:19;36.42;;;24.88;;
30133;SDS011;16946;49.984;10.672;2023-02-10T01:50:53;35.95;;;24.63;;
30133;SDS011;16946;49.984;10.672;2023-02-10T01:51:30;34.08;;;23.33;;
30133;SDS011;16946;49.984;10.672;2023-02-10T01:52:07;33.45;;;23.80;;
30133;SDS011;16946;49.984;10.672;2023-02-10T01:52:44;34.67;;;23.75;;
30133;SDS011;16946;49.984;10.672;2023-02-10T01:53:15;34.92;;;23.98;;
30133;SDS011;16946;49.984;10.672;2023-02-10T01:53:46;33.90;;;23.48;;
30133;SDS011;16946;49.984;10.672;2023-02-10T01:54:19;36.03;;;24.23;;
30133;SDS011;16946;49.984;10.672;2023-02-10T01:55:02;36.38;;;24.25;;
30133;SDS011;16946;49.984;10.672;2023-02-10T01:55:36;35.80;;;24.25;;
30133;SDS011;16946;49.984;10.672;2023-02-10T01:56:10;33.90;;;24.73;;
30133;SDS011;16946;49.984;10.672;2023-02-10T01:56:44;35.95;;;24.60;;
30133;SDS011;16946;49.984;10.672;2023-02-10T01:57:16;30.77;;;23.35;;
30133;SDS011;16946;49.984;10.672;2023-02-10T01:57:48;37.85;;;25.80;;
30133;SDS011;16946;49.984;10.672;2023-02-10T01:58:25;34.25;;;24.58;;
30133;SDS011;16946;49.984;10.672;2023-02-10T01:58:59;37.38;;;27.05;;
30133;SDS011;16946;49.984;10.672;2023-02-10T01:59:34;34.50;;;26.33;;
30133;SDS011;16946;49.984;10.672;2023-02-10T02:00:06;37.03;;;25.90;;
30133;SDS011;16946;49.984;10.672;2023-02-10T02:00:38;36.53;;;24.98;;
30133;SDS011;16946;49.984;10.672;2023-02-10T02:01:09;35.77;;;25.63;;
30133;SDS011;16946;49.984;10.672;2023-02-10T02:01:39;37.20;;;25.00;;
30133;SDS011;16946;49.984;10.672;2023-02-10T02:02:10;36.87;;;25.27;;
30133;SDS011;16946;49.984;10.672;2023-02-10T02:02:43;34.90;;;24.00;;
30133;SDS011;16946;49.984;10.672;2023-02-10T02:03:14;34.95;;;24.40;;
30133;SDS011;16946;49.984;10.672;2023-02-10T02:03:45;35.33;;;24.50;;
30133;SDS011;16946;49.984;10.672;2023-02-10T02:04:16;34.23;;;23.77;;
30133;SDS011;16946;49.984;10.672;2023-02-10T02:04:51;34.37;;;24.27;;
30133;SDS011;16946;49.984;10.672;2023-02-10T02:05:30;31.92;;;24.10;;
30133;SDS011;16946;49.984;10.672;2023-02-10T02:06:03;34.63;;;24.08;;
30133;SDS011;16946;49.984;10.672;2023-02-10T02:06:34;34.43;;;24.20;;
30133;SDS011;16946;49.984;10.672;2023-02-10T02:07:05;36.38;;;25.60;;
30133;SDS011;16946;49.984;10.672;2023-02-10T02:07:36;34.57;;;24.20;;
30133;SDS011;16946;49.984;10.672;2023-02-10T02:08:14;34.72;;;24.75;;
30133;SDS011;16946;49.984;10.672;2023-02-10T02:08:47;37.00;;;24.77;;
30133;SDS011;16946;49.984;10.672;2023-02-10T02:09:17;35.43;;;25.27;;
30133;SDS011;16946;49.984;10.672;2023-02-10T02:09:48;37.80;;;24.47;;
30133;SDS011;16946;49.984;10.672;2023-02-10T02:10:20;37.40;;;25.98;;
30133;SDS011;16946;49.984;10.672;2023-02-10T02:11:35;35.25;;;25.30;;
30133;SDS011;16946;49.984;10.672;2023-02-10T02:13:07;38.97;;;24.70;;
30133;SDS011;16946;49.984;10.672;2023-02-10T02:15:02;38.33;;;25.77;;
30133;SDS011;16946;49.984;10.672;2023-02-10T02:15:42;37.70;;;27.00;;
30133;SDS011;16946;49.984;10.672;2023-02-10T02:18:51;42.92;;;28.02;;
30133;SDS011;16946;49.984;10.672;2023-02-10T02:19:36;38.45;;;27.65;;
30133;SDS011;16946;49.984;10.672;2023-02-10T02:25:17;39.45;;;28.02;;
30133;SDS011;16946;49.984;10.672;2023-02-10T02:28:17;38.35;;;29.98;;
30133;SDS011;16946;49.984;10.672;2023-02-10T02:33:37;36.30;;;26.95;;
30133;SDS011;16946;49.984;10.672;2023-02-10T02:34:23;35.53;;;27.00;;
30133;SDS011;16946;49.984;10.672;2023-02-10T02:35:36;40.17;;;27.52;;
30133;SDS011;16946;49.984;10.672;2023-02-10T02:36:17;37.13;;;27.17;;
30133;SDS011;16946;49.984;10.672;2023-02-10T02:36:55;36.38;;;26.15;;
30133;SDS011;16946;49.984;10.672;2023-02-10T02:37:29;40.75;;;26.92;;
30133;SDS011;16946;49.984;10.672;2023-02-10T02:38:03;35.10;;;25.73;;
30133;SDS011;16946;49.984;10.672;2023-02-10T02:38:40;41.47;;;27.33;;
30133;SDS011;16946;49.984;10.672;2023-02-10T02:39:11;37.45;;;27.30;;
30133;SDS011;16946;49.984;10.672;2023-02-10T02:39:41;37.73;;;27.97;;
30133;SDS011;16946;49.984;10.672;2023-02-10T02:40:14;37.92;;;26.65;;
30133;SDS011;16946;49.984;10.672;2023-02-10T02:40:45;38.65;;;27.75;;
30133;SDS011;16946;49.984;10.672;2023-02-10T02:41:23;41.07;;;29.10;;
30133;SDS011;16946;49.984;10.672;2023-02-10T02:42:27;39.67;;;28.05;;
30133;SDS011;16946;49.984;10.672;2023-02-10T02:42:51;36.88;;;26.17;;
30133;SDS011;16946;49.984;10.672;2023-02-10T02:43:22;38.67;;;28.83;;
30133;SDS011;16946;49.984;10.672;2023-02-10T02:43:53;39.15;;;27.25;;
30133;SDS011;16946;49.984;10.672;2023-02-10T02:44:24;37.20;;;27.08;;
30133;SDS011;16946;49.984;10.672;2023-02-10T02:45:02;39.73;;;28.30;;
30133;SDS011;16946;49.984;10.672;2023-02-10T02:45:46;43.63;;;28.88;;
30133;SDS011;16946;49.984;10.672;2023-02-10T02:47:41;40.38;;;27.02;;
30133;SDS011;16946;49.984;10.672;2023-02-10T02:50:48;42.00;;;28.33;;
30133;SDS011;16946;49.984;10.672;2023-02-10T02:52:17;40.90;;;26.52;;
30133;SDS011;16946;49.984;10.672;2023-02-10T02:53:06;37.80;;;26.60;;
30133;SDS011;16946;49.984;10.672;2023-02-10T02:53:45;41.92;;;27.35;;
30133;SDS011;16946;49.984;10.672;2023-02-10T02:54:44;36.13;;;26.17;;
30133;SDS011;16946;49.984;10.672;2023-02-10T02:55:59;38.25;;;26.38;;
30133;SDS011;16946;49.984;10.672;2023-02-10T02:57:45;35.20;;;25.85;;
30133;SDS011;16946;49.984;10.672;2023-02-10T02:58:31;37.47;;;26.52;;
30133;SDS011;16946;49.984;10.672;2023-02-10T03:00:12;36.08;;;25.92;;
30133;SDS011;16946;49.984;10.672;2023-02-10T03:00:45;38.92;;;27.10;;
30133;SDS011;16946;49.984;10.672;2023-02-10T03:01:20;40.67;;;28.05;;
30133;SDS011;16946;49.984;10.672;2023-02-10T03:02:00;38.03;;;25.85;;
30133;SDS011;16946;49.984;10.672;2023-02-10T03:02:34;39.90;;;28.77;;
30133;SDS011;16946;49.984;10.672;2023-02-10T03:03:07;38.92;;;26.80;;
30133;SDS011;16946;49.984;10.672;2023-02-10T03:03:39;41.13;;;29.50;;
30133;SDS011;16946;49.984;10.672;2023-02-10T03:04:11;39.72;;;28.15;;
30133;SDS011;16946;49.984;10.672;2023-02-10T03:04:43;36.80;;;26.73;;
30133;SDS011;16946;49.984;10.672;2023-02-10T03:05:18;41.87;;;28.10;;
30133;SDS011;16946;49.984;10.672;2023-02-10T03:05:53;41.15;;;27.48;;
30133;SDS011;16946;49.984;10.672;2023-02-10T03:06:24;40.97;;;27.57;;
30133;SDS011;16946;49.984;10.672;2023-02-10T03:06:55;39.67;;;25.57;;
30133;SDS011;16946;49.984;10.672;2023-02-10T03:07:25;40.83;;;28.57;;
30133;SDS011;16946;49.984;10.672;2023-02-10T03:07:56;40.37;;;27.03;;
30133;SDS011;16946;49.984;10.672;2023-02-10T03:08:28;42.03;;;28.55;;
30133;SDS011;16946;49.984;10.672;2023-02-10T03:09:01;38.47;;;26.10;;
30133;SDS011;16946;49.984;10.672;2023-02-10T03:09:31;39.47;;;27.13;;
30133;SDS011;16946;49.984;10.672;2023-02-10T03:10:03;38.28;;;26.10;;
30133;SDS011;16946;49.984;10.672;2023-02-10T03:10:34;41.38;;;27.42;;
30133;SDS011;16946;49.984;10.672;2023-02-10T03:11:04;41.23;;;26.30;;
30133;SDS011;16946;49.984;10.672;2023-02-10T03:11:35;36.00;;;25.07;;
30133;SDS011;16946;49.984;10.672;2023-02-10T03:12:05;38.37;;;25.40;;
30133;SDS011;16946;49.984;10.672;2023-02-10T03:12:36;41.20;;;27.83;;
30133;SDS011;16946;49.984;10.672;2023-02-10T03:13:07;38.27;;;26.50;;
30133;SDS011;16946;49.984;10.672;2023-02-10T03:13:37;39.83;;;25.80;;
30133;SDS011;16946;49.984;10.672;2023-02-10T03:14:08;36.10;;;25.67;;
30133;SDS011;16946;49.984;10.672;2023-02-10T03:14:38;34.47;;;25.07;;
30133;SDS011;16946;49.984;10.672;2023-02-10T03:15:09;43.37;;;26.63;;
30133;SDS011;16946;49.984;10.672;2023-02-10T03:15:41;37.53;;;25.35;;
30133;SDS011;16946;49.984;10.672;2023-02-10T03:16:12;38.00;;;25.88;;
30133;SDS011;16946;49.984;10.672;2023-02-10T03:16:43;34.50;;;24.60;;
30133;SDS011;16946;49.984;10.672;2023-02-10T03:17:13;35.60;;;24.83;;
30133;SDS011;16946;49.984;10.672;2023-02-10T03:17:44;37.10;;;27.47;;
30133;SDS011;16946;49.984;10.672;2023-02-10T03:18:15;37.07;;;25.70;;
30133;SDS011;16946;49.984;10.672;2023-02-10T03:18:45;40.30;;;27.63;;
30133;SDS011;16946;49.984;10.672;2023-02-10T03:19:16;39.77;;;25.67;;
30133;SDS011;16946;49.984;10.672;2023-02-10T03:19:46;38.03;;;26.23;;
30133;SDS011;16946;49.984;10.672;2023-02-10T03:20:17;37.13;;;26.17;;
30133;SDS011;16946;49.984;10.672;2023-02-10T03:20:48;39.30;;;27.63;;
30133;SDS011;16946;49.984;10.672;2023-02-10T03:21:18;38.83;;;27.70;;
30133;SDS011;16946;49.984;10.672;2023-02-10T03:21:49;37.03;;;25.17;;
30133;SDS011;16946;49.984;10.672;2023-02-10T03:22:19;36.03;;;25.07;;
30133;SDS011;16946;49.984;10.672;2023-02-10T03:22:50;38.50;;;25.47;;
30133;SDS011;16946;49.984;10.672;2023-02-10T03:23:20;38.43;;;26.40;;
30133;SDS011;16946;49.984;10.672;2023-02-10T03:23:51;36.67;;;25.23;;
30133;SDS011;16946;49.984;10.672;2023-02-10T03:24:21;37.33;;;26.23;;
30133;SDS011;16946;49.984;10.672;2023-02-10T03:24:52;37.53;;;24.80;;
30133;SDS011;16946;49.984;10.672;2023-02-10T03:25:22;37.40;;;26.03;;
30133;SDS011;16946;49.984;10.672;2023-02-10T03:25:53;37.87;;;25.70;;
30133;SDS011;16946;49.984;10.672;2023-02-10T03:26:23;38.77;;;26.13;;
30133;SDS011;16946;49.984;10.672;2023-02-10T03:26:54;35.80;;;25.83;;
30133;SDS011;16946;49.984;10.672;2023-02-10T03:27:24;38.43;;;26.33;;
30133;SDS011;16946;49.984;10.672;2023-02-10T03:27:55;37.73;;;25.97;;
30133;SDS011;16946;49.984;10.672;2023-02-10T03:28:26;38.37;;;26.40;;
30133;SDS011;16946;49.984;10.672;2023-02-10T03:28:57;36.22;;;26.83;;
30133;SDS011;16946;49.984;10.672;2023-02-10T03:29:27;40.53;;;25.83;;
30133;SDS011;16946;49.984;10.672;2023-02-10T03:29:58;36.67;;;25.10;;
30133;SDS011;16946;49.984;10.672;2023-02-10T03:30:28;39.67;;;27.57;;
30133;SDS011;16946;49.984;10.672;2023-02-10T03:31:03;37.03;;;26.83;;
30133;SDS011;16946;49.984;10.672;2023-02-10T03:31:36;38.33;;;25.08;;
30133;SDS011;16946;49.984;10.672;2023-02-10T03:32:06;38.67;;;25.73;;
30133;SDS011;16946;49.984;10.672;2023-02-10T03:32:37;36.33;;;25.13;;
30133;SDS011;16946;49.984;10.672;2023-02-10T03:33:07;36.77;;;26.10;;